Time;durP1;ratioP1;P1;durP2;ratioP2;P2;SDS_P1;SDS_P2;PMS_P1;PMS_P2;Temp;Humidity;BMP_temperature;BMP_pressure;BME280_temperature;BME280_humidity;BME280_pressure;Samples;Min_cycle;Max_cycle;Signal;HPM_P1;HPM_P2
2021/12/14 00:01:44;;;;;;;13.20;10.07;;;8.10;99.90;;;;;;5065566;28;20040;-79
2021/12/14 00:04:29;;;;;;;22.27;11.57;;;8.10;99.90;;;;;;5077286;28;20415;-79
2021/12/14 00:06:57;;;;;;;18.67;11.88;;;8.10;99.90;;;;;;5064579;28;20025;-79
2021/12/14 00:09:36;;;;;;;18.13;10.63;;;8.00;99.90;;;;;;5068738;28;20119;-79
2021/12/14 00:17:25;;;;;;;16.33;10.55;;;8.10;99.90;;;;;;5064230;28;20461;-79
2021/12/14 00:19:54;;;;;;;14.25;9.95;;;8.00;99.90;;;;;;5073126;28;20111;-79
2021/12/14 00:22:37;;;;;;;13.68;10.27;;;8.10;99.90;;;;;;5071636;28;20554;-79
2021/12/14 00:25:05;;;;;;;17.25;10.40;;;8.00;99.90;;;;;;5072359;28;20049;-79
2021/12/14 00:27:32;;;;;;;19.02;10.43;;;8.00;99.90;;;;;;5068653;28;20021;-79
2021/12/14 00:30:00;;;;;;;13.23;8.55;;;8.00;99.90;;;;;;5060101;28;20119;-79
2021/12/14 00:35:49;;;;;;;15.40;9.45;;;8.00;99.90;;;;;;5066227;28;20035;-79
2021/12/14 00:38:17;;;;;;;14.63;10.30;;;8.00;99.90;;;;;;5072138;28;20035;-79
2021/12/14 00:40:49;;;;;;;15.95;8.93;;;8.00;99.90;;;;;;5071143;28;20464;-79
2021/12/14 00:43:15;;;;;;;13.02;9.15;;;8.00;99.90;;;;;;5072173;28;20039;-79
2021/12/14 00:45:43;;;;;;;13.63;9.75;;;8.00;99.90;;;;;;5054212;28;20025;-79
2021/12/14 00:48:09;;;;;;;11.90;8.80;;;8.00;99.90;;;;;;5052808;28;20028;-79
2021/12/14 00:50:37;;;;;;;12.07;8.20;;;8.00;99.90;;;;;;5055365;28;20055;-79
2021/12/14 00:53:04;;;;;;;11.93;8.40;;;8.00;99.90;;;;;;5066458;28;20599;-79
2021/12/14 00:55:41;;;;;;;14.65;10.52;;;7.90;99.90;;;;;;5054976;28;20025;-79
2021/12/14 00:58:07;;;;;;;14.05;9.75;;;7.90;99.90;;;;;;5071034;28;20049;-79
2021/12/14 01:00:39;;;;;;;16.75;11.13;;;7.90;99.90;;;;;;5070390;28;20075;-79
2021/12/14 01:03:07;;;;;;;18.20;12.00;;;7.90;99.90;;;;;;5070444;28;20052;-79
2021/12/14 01:05:39;;;;;;;16.58;9.80;;;8.00;99.90;;;;;;5070965;28;20104;-79
2021/12/14 01:08:08;;;;;;;14.15;9.35;;;8.00;99.90;;;;;;5065716;28;20013;-79
2021/12/14 01:11:01;;;;;;;16.20;10.70;;;8.00;99.90;;;;;;5052389;28;20047;-79
2021/12/14 01:13:28;;;;;;;16.02;9.13;;;7.90;99.90;;;;;;5052586;28;20112;-79
2021/12/14 01:16:19;;;;;;;11.93;8.85;;;7.90;99.90;;;;;;5052776;28;20412;-79
2021/12/14 01:19:01;;;;;;;17.15;10.23;;;7.90;99.90;;;;;;5071931;28;20411;-79
2021/12/14 01:24:22;;;;;;;12.85;8.85;;;7.90;99.90;;;;;;5072021;28;20056;-79
2021/12/14 01:26:49;;;;;;;12.00;7.78;;;7.90;99.90;;;;;;5072628;28;20020;-79
2021/12/14 01:29:17;;;;;;;12.00;8.07;;;8.00;99.90;;;;;;5065269;28;20456;-79
2021/12/14 01:31:43;;;;;;;15.60;8.50;;;7.90;99.90;;;;;;5052261;28;20025;-79
2021/12/14 01:34:15;;;;;;;15.77;8.40;;;8.00;99.90;;;;;;5051909;28;20412;-79
2021/12/14 01:36:45;;;;;;;11.35;7.47;;;7.90;99.90;;;;;;5067631;28;20096;-79
2021/12/14 01:41:56;;;;;;;15.63;9.43;;;7.90;99.90;;;;;;5052114;28;20036;-79
2021/12/14 01:44:24;;;;;;;13.00;8.35;;;7.80;99.90;;;;;;5072341;28;20024;-79
2021/12/14 01:46:59;;;;;;;12.95;9.63;;;7.80;99.90;;;;;;5063898;28;20021;-79
2021/12/14 01:49:27;;;;;;;16.33;9.50;;;7.90;99.90;;;;;;5051727;28;20071;-79
2021/12/14 01:51:56;;;;;;;15.88;8.98;;;7.90;99.90;;;;;;5054075;28;20039;-79
2021/12/14 01:54:27;;;;;;;10.85;8.43;;;7.80;99.90;;;;;;5073618;28;20039;-79
2021/12/14 01:56:53;;;;;;;18.20;9.25;;;7.80;99.90;;;;;;5074840;28;20032;-79
2021/12/14 01:59:27;;;;;;;14.23;9.30;;;7.80;99.90;;;;;;5070779;28;20040;-79
2021/12/14 02:02:08;;;;;;;14.82;10.10;;;7.80;99.90;;;;;;5065185;28;20029;-79
2021/12/14 02:04:38;;;;;;;20.40;10.45;;;7.80;99.90;;;;;;5056756;28;20025;-79
2021/12/14 02:07:06;;;;;;;15.73;10.95;;;7.80;99.90;;;;;;5055876;28;20393;-79
2021/12/14 02:09:34;;;;;;;16.02;10.43;;;7.80;99.90;;;;;;5055552;28;20108;-79
2021/12/14 02:12:14;;;;;;;14.65;9.70;;;7.80;99.90;;;;;;5055807;28;20372;-79
2021/12/14 02:14:41;;;;;;;18.10;9.40;;;7.80;99.90;;;;;;5070647;28;20056;-79
2021/12/14 02:17:11;;;;;;;14.38;9.85;;;7.80;99.90;;;;;;5059391;28;20057;-79
2021/12/14 02:19:37;;;;;;;18.15;10.40;;;7.80;99.90;;;;;;5055768;28;20034;-79
2021/12/14 02:22:05;;;;;;;14.02;9.32;;;7.80;99.90;;;;;;5065402;28;20404;-79
2021/12/14 02:24:31;;;;;;;16.45;9.45;;;7.80;99.90;;;;;;5065165;28;20021;-79
2021/12/14 02:26:57;;;;;;;11.52;8.48;;;7.70;99.90;;;;;;5054046;28;20273;-79
2021/12/14 02:29:27;;;;;;;15.00;8.63;;;7.70;99.90;;;;;;5084829;28;20049;-79
2021/12/14 02:31:59;;;;;;;13.30;8.68;;;7.70;99.90;;;;;;5068094;28;20032;-79
2021/12/14 02:34:26;;;;;;;14.77;9.60;;;7.70;99.90;;;;;;5056004;28;20039;-79
2021/12/14 02:36:52;;;;;;;14.93;8.55;;;7.80;99.90;;;;;;5055057;28;20029;-79
2021/12/14 02:39:45;;;;;;;17.73;9.68;;;7.70;99.90;;;;;;5055825;28;20021;-79
2021/12/14 02:42:15;;;;;;;11.52;7.80;;;7.70;99.90;;;;;;5055056;28;20041;-79
2021/12/14 02:44:47;;;;;;;11.45;8.30;;;7.70;99.90;;;;;;5056251;28;20150;-79
2021/12/14 02:47:16;;;;;;;15.23;9.73;;;7.60;99.90;;;;;;5074625;28;20136;-79
2021/12/14 02:49:43;;;;;;;12.48;8.48;;;7.60;99.90;;;;;;5054917;28;20025;-79
2021/12/14 02:52:13;;;;;;;13.60;8.50;;;7.70;99.90;;;;;;5054582;28;20029;-79
2021/12/14 02:54:50;;;;;;;17.90;8.98;;;7.70;99.90;;;;;;5061990;28;20044;-79
2021/12/14 02:57:21;;;;;;;12.48;8.27;;;7.60;99.90;;;;;;5066922;28;20041;-79
2021/12/14 02:59:48;;;;;;;9.63;7.03;;;7.60;99.90;;;;;;5054788;28;20091;-79
2021/12/14 03:02:21;;;;;;;9.63;7.05;;;7.60;99.90;;;;;;5069471;28;20052;-79
2021/12/14 03:04:52;;;;;;;8.80;5.30;;;7.70;99.90;;;;;;5055618;28;20342;-78
2021/12/14 03:07:26;;;;;;;7.03;5.20;;;7.70;99.90;;;;;;5054284;28;20025;-79
2021/12/14 03:12:43;;;;;;;7.78;5.25;;;7.80;99.90;;;;;;5059466;28;20036;-79
2021/12/14 03:15:18;;;;;;;7.80;4.57;;;7.80;99.90;;;;;;5069084;28;20127;-79
2021/12/14 03:17:45;;;;;;;6.18;4.75;;;7.80;99.90;;;;;;5073908;28;20535;-79
2021/12/14 03:20:16;;;;;;;5.78;4.03;;;7.80;99.90;;;;;;5061406;28;20040;-79
2021/12/14 03:22:57;;;;;;;6.38;4.13;;;7.70;99.90;;;;;;5069061;28;20086;-79
2021/12/14 03:25:23;;;;;;;5.93;4.15;;;7.70;99.90;;;;;;5055809;28;20330;-79
2021/12/14 03:27:50;;;;;;;8.57;4.45;;;7.70;99.90;;;;;;5072161;28;20028;-79
2021/12/14 03:30:23;;;;;;;5.97;4.78;;;7.60;99.90;;;;;;5054292;28;20044;-79
2021/12/14 03:32:50;;;;;;;5.15;3.88;;;7.60;99.90;;;;;;5059757;28;20397;-79
2021/12/14 03:35:18;;;;;;;5.18;4.47;;;7.60;99.90;;;;;;5053784;28;20052;-79
2021/12/14 03:37:45;;;;;;;5.25;4.38;;;7.60;99.90;;;;;;5054074;28;20024;-79
2021/12/14 03:40:11;;;;;;;5.35;4.22;;;7.60;99.90;;;;;;5053870;28;20033;-79
2021/12/14 03:42:40;;;;;;;6.68;4.25;;;7.60;99.90;;;;;;5070274;28;20035;-79
2021/12/14 03:45:13;;;;;;;6.10;4.40;;;7.60;99.90;;;;;;5060217;28;20029;-79
2021/12/14 03:47:44;;;;;;;4.25;3.35;;;7.60;99.90;;;;;;5062310;28;20050;-79
2021/12/14 03:50:18;;;;;;;5.68;4.22;;;7.60;99.90;;;;;;5066834;28;20432;-79
2021/12/14 03:52:44;;;;;;;6.18;4.57;;;7.50;99.90;;;;;;5070666;28;20408;-79
2021/12/14 03:55:18;;;;;;;5.75;4.07;;;7.50;99.90;;;;;;5053734;28;20525;-79
2021/12/14 03:57:45;;;;;;;4.82;3.65;;;7.50;99.90;;;;;;5072454;28;20129;-79
2021/12/14 04:00:20;;;;;;;4.57;3.58;;;7.50;99.90;;;;;;5059476;28;20108;-79
2021/12/14 04:02:47;;;;;;;5.63;4.15;;;7.50;99.90;;;;;;5072100;28;20058;-79
2021/12/14 04:05:13;;;;;;;4.10;3.33;;;7.50;99.90;;;;;;5073355;28;20040;-79
2021/12/14 04:07:42;;;;;;;4.50;3.47;;;7.50;99.90;;;;;;5071983;28;20029;-79
2021/12/14 04:10:24;;;;;;;4.07;3.40;;;7.50;99.90;;;;;;5066295;28;20025;-79
2021/12/14 04:12:51;;;;;;;4.03;2.53;;;7.50;99.90;;;;;;5052481;28;20035;-79
2021/12/14 04:15:17;;;;;;;4.63;3.30;;;7.50;99.90;;;;;;5053478;28;20361;-79
2021/12/14 04:17:45;;;;;;;3.78;3.30;;;7.50;99.90;;;;;;5053308;28;20029;-79
2021/12/14 04:20:32;;;;;;;4.45;3.42;;;7.40;99.90;;;;;;5058694;28;20021;-79
2021/12/14 04:22:59;;;;;;;5.25;3.70;;;7.50;99.90;;;;;;5059760;28;20439;-79
2021/12/14 04:25:29;;;;;;;4.30;3.67;;;7.40;99.90;;;;;;5070792;28;20017;-79
2021/12/14 04:27:57;;;;;;;6.60;4.70;;;7.40;99.90;;;;;;5072405;28;20453;-79
2021/12/14 04:30:25;;;;;;;9.93;5.47;;;7.40;99.90;;;;;;5087839;28;20350;-79
2021/12/14 04:33:04;;;;;;;9.85;5.93;;;7.50;99.90;;;;;;5092761;28;20031;-79
2021/12/14 04:35:35;;;;;;;6.57;5.05;;;7.50;99.90;;;;;;5083431;28;20040;-79
2021/12/14 04:38:09;;;;;;;6.85;5.28;;;7.50;99.90;;;;;;5052877;28;20032;-79
2021/12/14 04:51:55;;;;;;;11.30;7.82;;;7.50;99.90;;;;;;5053600;28;20020;-79
2021/12/14 04:52:01;;;;;;;;;;;7.50;99.90;;;;;;5067570;28;20443;-78
2021/12/14 04:54:52;;;;;;;11.38;8.15;;;7.40;99.90;;;;;;5076490;28;19999;-79
2021/12/14 04:57:43;;;;;;;9.27;7.00;;;7.40;99.90;;;;;;5074260;28;20455;-79
2021/12/14 05:00:24;;;;;;;11.55;7.97;;;7.40;99.90;;;;;;5072383;28;20431;-79
2021/12/14 05:02:50;;;;;;;12.48;7.82;;;7.40;99.90;;;;;;5069336;28;20029;-79
2021/12/14 05:05:47;;;;;;;11.35;7.85;;;7.40;99.90;;;;;;5063295;28;20461;-79
2021/12/14 05:10:59;;;;;;;10.38;7.72;;;7.40;99.90;;;;;;5072112;28;20547;-78
2021/12/14 05:13:27;;;;;;;13.43;7.20;;;7.40;99.90;;;;;;5072156;28;20032;-79
2021/12/14 05:15:53;;;;;;;9.63;6.53;;;7.40;99.90;;;;;;5072399;28;20032;-79
2021/12/14 05:18:21;;;;;;;9.95;6.93;;;7.40;99.90;;;;;;5070924;28;20035;-79
2021/12/14 05:20:49;;;;;;;10.52;7.28;;;7.40;99.90;;;;;;5072564;28;20029;-78
2021/12/14 05:23:20;;;;;;;9.35;6.93;;;7.40;99.90;;;;;;5072345;28;20036;-79
2021/12/14 05:25:46;;;;;;;11.70;7.95;;;7.40;99.90;;;;;;5075698;28;20019;-79
2021/12/14 05:28:15;;;;;;;8.65;6.03;;;7.40;99.90;;;;;;5076362;28;20544;-79
2021/12/14 05:30:44;;;;;;;12.20;7.53;;;7.40;99.90;;;;;;5076403;28;20023;-79
2021/12/14 05:33:20;;;;;;;11.00;7.20;;;7.40;99.90;;;;;;5075855;28;20020;-79
2021/12/14 05:35:47;;;;;;;7.43;6.03;;;7.30;99.90;;;;;;5076017;28;20024;-79
2021/12/14 05:38:23;;;;;;;12.25;6.50;;;7.30;99.90;;;;;;5076026;28;20439;-79
2021/12/14 05:43:22;;;;;;;11.20;7.10;;;7.30;99.90;;;;;;5075952;28;20124;-79
2021/12/14 05:45:53;;;;;;;7.80;6.07;;;7.30;99.90;;;;;;5076151;28;20067;-79
2021/12/14 05:48:22;;;;;;;9.23;6.75;;;7.30;99.90;;;;;;5084061;28;20043;-79
2021/12/14 05:50:51;;;;;;;7.57;5.60;;;7.30;99.90;;;;;;5079396;28;20025;-79
2021/12/14 05:53:21;;;;;;;9.93;6.47;;;7.30;99.90;;;;;;5078134;28;20396;-79
2021/12/14 05:55:47;;;;;;;12.57;7.15;;;7.30;99.90;;;;;;5093208;28;20024;-79
2021/12/14 05:58:16;;;;;;;10.48;6.75;;;7.30;99.90;;;;;;5075612;28;20039;-79
2021/12/14 06:00:46;;;;;;;10.50;7.00;;;7.30;99.90;;;;;;5075615;28;20111;-78
2021/12/14 06:03:46;;;;;;;9.98;7.18;;;7.40;99.90;;;;;;5075071;28;20028;-79
2021/12/14 06:06:24;;;;;;;10.43;6.93;;;7.30;99.90;;;;;;5071281;28;20472;-79
2021/12/14 06:09:19;;;;;;;9.93;6.75;;;7.40;99.90;;;;;;5075331;28;20473;-79
2021/12/14 06:11:48;;;;;;;10.35;7.10;;;7.40;99.90;;;;;;5073582;28;20503;-79
2021/12/14 06:14:19;;;;;;;7.90;6.10;;;7.40;99.90;;;;;;5075347;28;20032;-78
2021/12/14 06:16:47;;;;;;;8.50;6.32;;;7.50;99.90;;;;;;5075011;28;20411;-79
2021/12/14 06:19:16;;;;;;;33.63;14.35;;;7.40;99.90;;;;;;5073593;28;20036;-79
2021/12/14 06:21:43;;;;;;;61.20;24.00;;;7.40;99.90;;;;;;5071830;28;20590;-79
2021/12/14 06:24:11;;;;;;;21.13;11.23;;;7.40;99.90;;;;;;5072668;28;20036;-79
2021/12/14 06:26:45;;;;;;;16.13;11.20;;;7.40;99.90;;;;;;5073972;28;20031;-78
2021/12/14 06:29:16;;;;;;;11.77;8.55;;;7.40;99.90;;;;;;5075076;28;20036;-79
2021/12/14 06:31:42;;;;;;;16.05;7.88;;;7.50;99.90;;;;;;5081743;28;20121;-79
2021/12/14 06:34:20;;;;;;;10.50;7.80;;;7.50;99.90;;;;;;5088267;28;20063;-79
2021/12/14 06:37:15;;;;;;;7.93;6.47;;;7.50;99.90;;;;;;5084462;28;20439;-78
2021/12/14 06:40:12;;;;;;;7.75;5.80;;;7.50;99.90;;;;;;5094136;28;20032;-78
2021/12/14 06:42:45;;;;;;;9.10;5.90;;;7.50;99.90;;;;;;5094373;28;20762;-79
2021/12/14 06:45:19;;;;;;;8.18;6.40;;;7.50;99.90;;;;;;5078450;28;20024;-79
2021/12/14 06:47:47;;;;;;;8.30;5.88;;;7.50;99.90;;;;;;5087429;28;20107;-79
2021/12/14 06:50:27;;;;;;;6.65;5.32;;;7.50;99.90;;;;;;5080825;28;20016;-79
2021/12/14 06:53:04;;;;;;;7.57;5.28;;;7.50;99.90;;;;;;5094538;28;20111;-79
2021/12/14 06:55:33;;;;;;;7.50;5.22;;;7.50;99.90;;;;;;5077930;28;20024;-79
2021/12/14 06:58:12;;;;;;;12.98;5.90;;;7.60;99.90;;;;;;5094730;28;20032;-79
2021/12/14 07:00:42;;;;;;;7.32;5.55;;;7.60;99.90;;;;;;5059175;28;20024;-79
2021/12/14 07:03:08;;;;;;;7.53;4.95;;;7.50;99.90;;;;;;5071963;28;20032;-79
2021/12/14 07:05:35;;;;;;;9.20;5.70;;;7.60;99.90;;;;;;5094437;28;20040;-78
2021/12/14 07:08:12;;;;;;;6.38;5.10;;;7.60;99.90;;;;;;5087113;28;20040;-78
2021/12/14 07:10:40;;;;;;;5.20;4.53;;;7.60;99.90;;;;;;5068814;28;20404;-78
2021/12/14 07:13:16;;;;;;;7.85;5.13;;;7.60;99.90;;;;;;5062699;28;20099;-78
2021/12/14 07:15:43;;;;;;;6.80;5.05;;;7.60;99.90;;;;;;5074275;28;20051;-78
2021/12/14 07:18:14;;;;;;;6.68;4.68;;;7.60;99.90;;;;;;5069695;28;20078;-79
2021/12/14 07:20:49;;;;;;;6.20;4.20;;;7.60;99.90;;;;;;5055136;28;20595;-78
2021/12/14 07:23:25;;;;;;;7.70;5.03;;;7.60;99.90;;;;;;5058443;28;20059;-77
2021/12/14 07:26:10;;;;;;;6.57;4.75;;;7.60;99.90;;;;;;5098922;28;20044;-78
2021/12/14 07:28:41;;;;;;;5.28;4.35;;;7.60;99.90;;;;;;5073816;28;20023;-78
2021/12/14 07:31:19;;;;;;;5.65;4.68;;;7.60;99.90;;;;;;5073728;28;20020;-78
2021/12/14 07:33:54;;;;;;;5.57;4.30;;;7.60;99.90;;;;;;5073262;28;20027;-78
2021/12/14 07:36:26;;;;;;;6.60;4.65;;;7.60;99.90;;;;;;5072793;28;20036;-77
2021/12/14 07:39:05;;;;;;;7.55;4.68;;;7.50;99.90;;;;;;5073706;28;20033;-78
2021/12/14 07:41:44;;;;;;;9.70;5.18;;;7.60;99.90;;;;;;5073420;28;20067;-78
2021/12/14 07:44:11;;;;;;;7.25;4.35;;;7.60;99.90;;;;;;5072642;28;20024;-78
2021/12/14 07:46:57;;;;;;;6.03;4.65;;;7.60;99.90;;;;;;5073298;28;20063;-77
2021/12/14 07:49:41;;;;;;;5.80;4.82;;;7.60;99.90;;;;;;5071445;28;20024;-77
2021/12/14 07:52:15;;;;;;;6.95;4.75;;;7.60;99.90;;;;;;5080615;28;20044;-77
2021/12/14 07:54:45;;;;;;;5.68;4.68;;;7.70;99.90;;;;;;5089533;28;20028;-78
2021/12/14 07:57:20;;;;;;;5.07;4.10;;;7.60;99.90;;;;;;5083243;28;20037;-77
2021/12/14 07:59:49;;;;;;;6.28;4.10;;;7.60;99.90;;;;;;5073538;28;20036;-78
2021/12/14 08:02:18;;;;;;;5.70;4.32;;;7.60;99.90;;;;;;5089356;28;20040;-77
2021/12/14 08:05:15;;;;;;;6.25;4.30;;;7.60;99.90;;;;;;5093148;28;20028;-78
2021/12/14 08:07:45;;;;;;;5.47;4.32;;;7.60;99.90;;;;;;5052240;28;20045;-78
2021/12/14 08:10:23;;;;;;;5.78;4.78;;;7.60;99.90;;;;;;5078606;28;20028;-78
2021/12/14 08:12:56;;;;;;;6.88;4.82;;;7.60;99.90;;;;;;5092749;28;20035;-77
2021/12/14 08:15:39;;;;;;;9.32;5.50;;;7.70;99.90;;;;;;5087590;28;20486;-77
2021/12/14 08:18:11;;;;;;;7.28;5.80;;;7.70;99.90;;;;;;5080270;28;20468;-77
2021/12/14 08:20:57;;;;;;;7.10;6.05;;;7.70;99.90;;;;;;5092050;28;20087;-78
2021/12/14 08:23:25;;;;;;;;;;;7.70;99.90;;;;;;5079328;28;20391;-78
2021/12/14 08:25:56;;;;;;;7.35;6.00;;;7.70;99.90;;;;;;5077362;28;19991;-77
2021/12/14 08:28:22;;;;;;;6.82;6.13;;;7.70;99.90;;;;;;5085927;28;20358;-77
2021/12/14 08:31:01;;;;;;;7.00;5.45;;;7.80;99.90;;;;;;5072811;28;20013;-77
2021/12/14 08:33:29;;;;;;;10.18;7.43;;;7.80;99.90;;;;;;5072546;28;20024;-77
2021/12/14 08:35:59;;;;;;;8.00;5.80;;;7.80;99.90;;;;;;5072632;28;20107;-78
2021/12/14 08:38:27;;;;;;;10.48;6.80;;;7.80;99.90;;;;;;5072875;28;20021;-77
2021/12/14 08:40:58;;;;;;;9.88;7.28;;;7.80;99.90;;;;;;5072383;28;20047;-78
2021/12/14 08:43:31;;;;;;;18.63;10.90;;;7.80;99.90;;;;;;5072722;28;20023;-77
2021/12/14 08:46:09;;;;;;;9.48;7.63;;;7.80;99.90;;;;;;5072122;28;20027;-78
2021/12/14 08:48:50;;;;;;;11.48;9.10;;;7.80;99.90;;;;;;5052404;28;20017;-77
2021/12/14 08:51:32;;;;;;;11.30;7.45;;;7.80;99.90;;;;;;5052610;28;20116;-77
2021/12/14 08:54:09;;;;;;;11.82;8.85;;;7.80;99.90;;;;;;5076064;28;20477;-77
2021/12/14 08:56:41;;;;;;;11.70;7.90;;;7.90;99.90;;;;;;5072555;28;20446;-77
2021/12/14 08:59:07;;;;;;;9.05;8.02;;;7.90;99.90;;;;;;5080740;28;20028;-78
2021/12/14 09:01:35;;;;;;;9.15;8.15;;;7.90;99.90;;;;;;5087157;28;20411;-77
2021/12/14 09:04:09;;;;;;;13.82;9.02;;;7.90;99.90;;;;;;5074068;28;20029;-77
2021/12/14 09:06:37;;;;;;;9.55;7.97;;;8.00;99.90;;;;;;5085670;28;20024;-78
2021/12/14 09:09:07;;;;;;;9.38;8.48;;;8.00;99.90;;;;;;5092015;28;20384;-77
2021/12/14 09:11:36;;;;;;;10.95;8.52;;;7.90;99.90;;;;;;5085778;28;20031;-77
2021/12/14 09:14:03;;;;;;;11.35;9.45;;;7.90;99.90;;;;;;5071313;28;20084;-77
2021/12/14 09:16:32;;;;;;;10.38;7.65;;;7.90;99.90;;;;;;5065712;28;20025;-77
2021/12/14 09:19:19;;;;;;;10.93;9.32;;;7.90;99.90;;;;;;5092464;28;20392;-77
2021/12/14 09:21:51;;;;;;;11.32;8.57;;;8.00;99.90;;;;;;5081657;28;20062;-78
2021/12/14 09:24:20;;;;;;;11.05;9.05;;;8.00;99.90;;;;;;5072534;28;20024;-78
2021/12/14 09:26:51;;;;;;;9.80;8.63;;;8.00;99.90;;;;;;5075511;28;20028;-78
2021/12/14 09:29:19;;;;;;;10.45;8.23;;;7.90;99.90;;;;;;5071079;28;20029;-77
2021/12/14 09:31:48;;;;;;;10.05;9.05;;;8.00;99.90;;;;;;5071712;28;20028;-78
2021/12/14 09:34:20;;;;;;;11.43;9.05;;;7.90;99.90;;;;;;5071908;28;20047;-77
2021/12/14 09:36:49;;;;;;;10.32;9.05;;;7.90;99.90;;;;;;5072158;28;20035;-77
2021/12/14 09:39:20;;;;;;;13.40;9.65;;;7.90;99.90;;;;;;5072173;28;20385;-77
2021/12/14 09:41:53;;;;;;;11.88;9.90;;;8.00;99.90;;;;;;5071921;28;20032;-78
2021/12/14 09:44:22;;;;;;;14.30;10.35;;;8.00;99.90;;;;;;5072226;28;20047;-77
2021/12/14 09:46:49;;;;;;;12.85;9.68;;;8.00;99.90;;;;;;5071670;28;20021;-77
2021/12/14 09:49:16;;;;;;;11.77;9.95;;;8.00;99.90;;;;;;5071846;28;20020;-77
2021/12/14 09:51:52;;;;;;;12.95;9.57;;;8.10;99.90;;;;;;5071962;28;20158;-78
2021/12/14 09:54:23;;;;;;;12.40;9.65;;;8.10;99.90;;;;;;5071981;28;20489;-77
2021/12/14 09:56:53;;;;;;;14.77;11.20;;;8.00;99.90;;;;;;5071543;28;20071;-77
2021/12/14 09:59:20;;;;;;;14.18;11.27;;;8.10;99.90;;;;;;5072035;28;20469;-78
2021/12/14 10:01:56;;;;;;;11.90;9.82;;;8.10;99.90;;;;;;5071517;28;20029;-77
2021/12/14 10:04:43;;;;;;;14.30;10.38;;;8.20;99.90;;;;;;5071871;28;20013;-77
2021/12/14 10:07:09;;;;;;;18.30;11.48;;;8.20;99.90;;;;;;5072028;28;20123;-77
2021/12/14 10:09:42;;;;;;;16.70;9.93;;;8.20;99.90;;;;;;5076204;28;20503;-78
2021/12/14 10:15:16;;;;;;;14.60;9.80;;;8.20;99.90;;;;;;5082465;28;20145;-78
2021/12/14 10:17:43;;;;;;;14.10;10.57;;;8.20;99.90;;;;;;5071100;28;20480;-77
2021/12/14 10:20:14;;;;;;;15.82;9.45;;;8.20;99.90;;;;;;5076228;28;20040;-77
2021/12/14 10:22:40;;;;;;;14.65;10.13;;;8.20;99.90;;;;;;5081493;28;20036;-78
2021/12/14 10:25:16;;;;;;;10.90;8.60;;;8.20;99.90;;;;;;5080855;28;20043;-78
2021/12/14 10:27:41;;;;;;;12.73;9.85;;;8.20;99.90;;;;;;5090639;28;20020;-78
2021/12/14 10:30:11;;;;;;;15.20;10.15;;;8.20;99.90;;;;;;5086597;28;20361;-77
2021/12/14 10:32:38;;;;;;;11.18;8.55;;;8.20;99.90;;;;;;5076315;28;20032;-78
2021/12/14 10:35:10;;;;;;;11.38;8.40;;;8.20;99.90;;;;;;5074601;28;20111;-78
2021/12/14 10:37:54;;;;;;;11.38;8.63;;;8.20;99.90;;;;;;5074826;28;20025;-77
2021/12/14 10:43:17;;;;;;;13.02;7.88;;;8.20;99.90;;;;;;5079894;28;20066;-77
2021/12/14 10:45:48;;;;;;;10.70;7.60;;;8.30;99.90;;;;;;5091790;28;20391;-77
2021/12/14 10:48:15;;;;;;;9.15;6.90;;;8.30;99.90;;;;;;5084110;28;20408;-78
2021/12/14 10:50:43;;;;;;;8.73;7.43;;;8.30;99.90;;;;;;5075177;28;20017;-77
2021/12/14 10:53:10;;;;;;;13.57;6.95;;;8.30;99.90;;;;;;5074761;28;20532;-77
2021/12/14 10:55:42;;;;;;;8.45;6.60;;;8.40;99.90;;;;;;5085243;28;20478;-77
2021/12/14 10:58:10;;;;;;;9.20;7.00;;;8.40;99.90;;;;;;5087758;28;20070;-77
2021/12/14 11:00:53;;;;;;;7.43;6.03;;;8.30;99.90;;;;;;5082771;28;20030;-78
2021/12/14 11:03:22;;;;;;;7.82;5.57;;;8.40;99.90;;;;;;5093889;28;20494;-78
2021/12/14 11:05:53;;;;;;;11.38;7.25;;;8.40;99.90;;;;;;5075975;28;20085;-78
2021/12/14 11:08:41;;;;;;;9.38;7.10;;;8.40;99.90;;;;;;5089923;28;20503;-78
2021/12/14 11:11:12;;;;;;;38.55;8.43;;;8.40;99.90;;;;;;5075666;28;20029;-78
2021/12/14 11:13:45;;;;;;;10.80;7.10;;;8.40;99.90;;;;;;5075434;28;20032;-78
2021/12/14 11:16:19;;;;;;;5.57;5.05;;;8.40;99.90;;;;;;5084812;28;20032;-78
2021/12/14 11:18:47;;;;;;;6.57;5.03;;;8.40;99.90;;;;;;5085345;28;20031;-78
2021/12/14 11:21:14;;;;;;;8.98;5.00;;;8.30;99.90;;;;;;5072503;28;20580;-78
2021/12/14 11:23:44;;;;;;;7.40;5.78;;;8.40;99.90;;;;;;5089727;28;20062;-78
2021/12/14 11:26:25;;;;;;;5.85;4.78;;;8.40;99.90;;;;;;5080195;28;20032;-78
2021/12/14 11:28:58;;;;;;;6.75;5.43;;;8.40;99.90;;;;;;5075593;28;20103;-78
2021/12/14 11:31:30;;;;;;;12.00;5.53;;;8.40;99.90;;;;;;5084831;28;20024;-78
2021/12/14 11:34:05;;;;;;;7.45;4.90;;;8.40;99.90;;;;;;5081763;28;20029;-78
2021/12/14 11:36:36;;;;;;;7.00;5.22;;;8.50;99.90;;;;;;5075121;28;20024;-78
2021/12/14 11:39:18;;;;;;;6.78;5.07;;;8.50;99.90;;;;;;5086429;28;20031;-78
2021/12/14 11:41:50;;;;;;;6.75;5.15;;;8.50;99.90;;;;;;5071491;28;20024;-78
2021/12/14 11:44:24;;;;;;;12.63;5.00;;;8.50;99.90;;;;;;5073446;28;20032;-78
2021/12/14 11:47:03;;;;;;;6.90;4.22;;;8.50;99.90;;;;;;5072857;28;20516;-78
2021/12/14 11:49:43;;;;;;;9.02;4.80;;;8.50;99.90;;;;;;5084567;28;20020;-78
2021/12/14 11:52:10;;;;;;;5.93;4.70;;;8.60;99.90;;;;;;5077230;28;20031;-78
2021/12/14 11:54:47;;;;;;;6.65;4.97;;;8.60;99.90;;;;;;5084436;28;20112;-78
2021/12/14 11:57:15;;;;;;;7.28;5.15;;;8.60;99.90;;;;;;5075955;28;20411;-78
2021/12/14 11:59:41;;;;;;;6.40;5.20;;;8.60;99.90;;;;;;5073259;28;20498;-78
2021/12/14 12:02:08;;;;;;;8.50;5.07;;;8.60;99.90;;;;;;5072657;28;20029;-78
2021/12/14 12:04:43;;;;;;;8.35;4.40;;;8.60;99.90;;;;;;5073074;28;20028;-78
2021/12/14 12:09:47;;;;;;;5.65;4.05;;;8.60;99.90;;;;;;5062948;28;20415;-78
2021/12/14 12:12:21;;;;;;;5.07;4.03;;;8.70;99.90;;;;;;5071313;28;20033;-78
2021/12/14 12:15:06;;;;;;;4.20;3.72;;;8.70;99.90;;;;;;5072396;28;20024;-78
2021/12/14 12:17:43;;;;;;;6.72;4.55;;;8.60;99.90;;;;;;5073144;28;20032;-78
2021/12/14 12:20:12;;;;;;;6.78;4.78;;;8.70;99.90;;;;;;5079341;28;20113;-78
2021/12/14 12:22:43;;;;;;;7.60;4.50;;;8.70;99.90;;;;;;5072217;28;20028;-78
2021/12/14 12:25:20;;;;;;;4.30;3.72;;;8.70;99.90;;;;;;5071676;28;20376;-77
2021/12/14 12:28:23;;;;;;;6.10;4.57;;;8.70;99.90;;;;;;5065268;28;20024;-78
2021/12/14 12:30:53;;;;;;;6.00;4.35;;;8.70;99.90;;;;;;5073029;28;20017;-78
2021/12/14 12:33:30;;;;;;;7.50;4.57;;;8.60;99.90;;;;;;5075425;28;20028;-78
2021/12/14 12:36:01;;;;;;;6.32;4.70;;;8.60;99.90;;;;;;5071182;28;20115;-78
2021/12/14 12:38:30;;;;;;;5.25;4.10;;;8.60;99.90;;;;;;5071571;28;20111;-78
2021/12/14 12:41:10;;;;;;;5.25;4.43;;;8.70;99.90;;;;;;5074088;28;20036;-78
2021/12/14 12:44:11;;;;;;;6.63;4.40;;;8.60;99.90;;;;;;5091900;28;20027;-78
2021/12/14 12:47:06;;;;;;;5.80;4.72;;;8.70;99.90;;;;;;5078699;28;20026;-78
2021/12/14 12:49:38;;;;;;;6.60;4.95;;;8.80;99.90;;;;;;5080556;28;20031;-78
2021/12/14 12:52:06;;;;;;;5.53;4.45;;;8.80;99.90;;;;;;5074941;28;20032;-78
2021/12/14 12:54:47;;;;;;;6.88;5.57;;;8.80;99.90;;;;;;5072973;28;20025;-78
2021/12/14 12:57:28;;;;;;;6.88;5.68;;;8.70;99.90;;;;;;5076521;28;20048;-78
2021/12/14 13:00:35;;;;;;;5.95;5.05;;;8.80;99.90;;;;;;5076972;28;20025;-78
2021/12/14 13:03:01;;;;;;;13.35;5.43;;;8.80;99.90;;;;;;5079427;28;20029;-78
2021/12/14 13:05:35;;;;;;;6.55;4.63;;;8.80;99.90;;;;;;5070540;28;20028;-78
2021/12/14 13:08:16;;;;;;;6.20;4.65;;;8.80;99.90;;;;;;5083134;28;20027;-77
2021/12/14 13:10:50;;;;;;;6.40;4.47;;;8.80;99.90;;;;;;5084944;28;20380;-78
2021/12/14 13:13:24;;;;;;;6.18;4.63;;;8.80;99.90;;;;;;5088504;28;20032;-78
2021/12/14 13:16:15;;;;;;;7.88;5.45;;;8.80;99.90;;;;;;5064801;28;20033;-78
2021/12/14 13:19:04;;;;;;;9.15;5.35;;;8.80;99.90;;;;;;5084794;28;20067;-78
2021/12/14 13:21:46;;;;;;;8.75;4.82;;;8.80;99.90;;;;;;5089060;28;20029;-77
2021/12/14 13:24:31;;;;;;;8.45;4.95;;;8.80;99.90;;;;;;5071979;28;20103;-78
2021/12/14 13:26:57;;;;;;;6.15;4.68;;;8.80;99.90;;;;;;5058725;28;20027;-78
2021/12/14 13:29:28;;;;;;;6.18;4.40;;;8.80;99.90;;;;;;5072233;28;20393;-78
2021/12/14 13:32:00;;;;;;;7.70;4.35;;;8.80;99.90;;;;;;5072318;28;20071;-78
2021/12/14 13:34:51;;;;;;;5.30;4.28;;;8.90;99.90;;;;;;5072490;28;20560;-77
2021/12/14 13:37:22;;;;;;;5.55;4.55;;;8.80;99.90;;;;;;5051043;28;20041;-77
2021/12/14 13:39:48;;;;;;;10.25;4.82;;;8.80;99.90;;;;;;5072000;28;20029;-78
2021/12/14 13:42:40;;;;;;;8.93;5.93;;;8.90;99.90;;;;;;5071137;28;20032;-78
2021/12/14 13:45:11;;;;;;;5.35;4.40;;;8.90;99.90;;;;;;5069218;28;20020;-78
2021/12/14 13:47:38;;;;;;;14.05;4.50;;;8.90;99.90;;;;;;5090952;28;20488;-77
2021/12/14 13:50:07;;;;;;;9.07;5.13;;;8.90;99.90;;;;;;5095502;28;20031;-78
2021/12/14 13:52:33;;;;;;;6.43;4.05;;;8.90;99.90;;;;;;5094460;28;20024;-78
2021/12/14 13:55:08;;;;;;;8.25;4.88;;;8.90;99.90;;;;;;5087176;28;20028;-78
2021/12/14 13:57:36;;;;;;;5.50;4.35;;;8.90;99.90;;;;;;5081556;28;20539;-77
2021/12/14 14:00:06;;;;;;;8.32;4.20;;;8.80;99.90;;;;;;5069844;28;20028;-78
2021/12/14 14:02:31;;;;;;;5.07;4.30;;;8.90;99.90;;;;;;5079101;28;20097;-78